Afra Willow — D5DV2 — position and weather

sailwx.info

Track history (hours):
 
Tides and Currents Weather Stations Pressure Air Temp Water Temp Dewpoint Dewpoint Depression Visibility Wind Speed Wind Dir Waves Ship Positions

Afra Willow

Last reported at 2018-Jun-14 21:47 UTC. Time now 2018-Jul-17 22:47 UTC.
Position N 01°31' E 103°07'.
Warning: this ship's position is 33 days out of date.

Length 241 m; draft 8.3 m.

Type: Ship. MMSI: 636015977.

Date/timePositionNaut miles runAvg speedWind from/ knotsBaromVisibWave heightAir tempDewpointWater temp
2018-Jun-14 21:47N 01°31' E 103°07'712.5
2018-Jun-14 21:12N 01°27' E 103°12'312.7
2018-Jun-14 20:58N 01°25' E 103°14'612.5
2018-Jun-14 20:28N 01°20' E 103°19'511.1
2018-Jun-14 20:00N 01°16' E 103°22'611.4
2018-Jun-14 19:30N 01°14' E 103°27'611.4
2018-Jun-14 19:00N 01°12' E 103°33'511.1
2018-Jun-14 18:30N 01°11' E 103°38'510.7
2018-Jun-14 18:01N 01°09' E 103°43'5 9.2
2018-Jun-14 17:30N 01°10' E 103°47'4 8.6
2018-Jun-14 17:01N 01°12' E 103°51'510.2
2018-Jun-14 16:30N 01°14' E 103°56'611.5
2018-Jun-14 16:00N 01°16' E 104°02'612.0
2018-Jun-14 15:29N 01°17' E 104°08'510.9
2018-Jun-14 15:00N 01°18' E 104°13'611.5
2018-Jun-14 14:29N 01°19' E 104°19'612.2
2018-Jun-14 13:59N 01°22' E 104°24'711.6
2018-Jun-14 13:25N 01°27' E 104°29'8 3.4
2018-Jun-14 11:09N 01°25' E 104°36'0 0.1
2018-Jun-14 08:32N 01°25' E 104°36'0 0.0
2018-Jun-13 21:53N 01°25' E 104°36'0 0.0
2018-Jun-13 15:10N 01°25' E 104°36'0 0.2
2018-Jun-13 14:52N 01°25' E 104°36'0 0.0
2018-Jun-13 14:24N 01°25' E 104°36'0 0.0
2018-Jun-12 05:35N 01°25' E 104°36'0 0.0
2018-Jun-11 19:44N 01°25' E 104°36'0 0.0
2018-Jun-11 14:28N 01°25' E 104°36'0 0.0
2018-Jun-10 18:16N 01°25' E 104°36'0 0.0
2018-Jun-10 04:46N 01°25' E 104°36'2 1.2
2018-Jun-10 02:49N 01°27' E 104°36'9 9.0
2018-Jun-10 01:49N 01°24' E 104°27'410.4
2018-Jun-10 01:25N 01°21' E 104°24'512.2
2018-Jun-10 01:00N 01°17' E 104°20'611.5
2018-Jun-10 00:29N 01°16' E 104°15'611.4
2018-Jun-09 23:59N 01°15' E 104°09'510.2
2018-Jun-09 23:31N 01°16' E 104°04'5 8.8
2018-Jun-09 22:59N 01°17' E 103°60'1 1.1
2018-Jun-09 22:30N 01°17' E 103°59'0 0.1
2018-Jun-09 22:00N 01°17' E 103°59'0 0.1
2018-Jun-09 21:30N 01°17' E 103°59'0 0.0
2018-Jun-09 21:00N 01°17' E 103°59'0 0.0
2018-Jun-09 20:31N 01°17' E 103°59'0 0.0
2018-Jun-09 20:00N 01°17' E 103°59'0 0.1
2018-Jun-09 19:29N 01°17' E 103°59'0 0.0
2018-Jun-09 19:00N 01°17' E 103°59'0 0.0
2018-Jun-09 18:27N 01°17' E 103°59'0 0.0
2018-Jun-09 17:54N 01°17' E 103°59'0 0.1
2018-Jun-09 17:29N 01°17' E 103°59'0 0.0
2018-Jun-09 16:58N 01°17' E 103°59'0 0.0
2018-Jun-09 16:30N 01°17' E 103°59'0 0.0
2018-Jun-09 15:58N 01°17' E 103°59'0 0.0
2018-Jun-09 14:57N 01°17' E 103°59'0 0.0
2018-Jun-09 14:28N 01°17' E 103°59'0 0.1
2018-Jun-09 13:57N 01°17' E 103°59'0 0.0
2018-Jun-09 13:27N 01°17' E 103°59'0 0.0
2018-Jun-09 13:00N 01°17' E 103°59'0 0.0
2018-Jun-09 12:30N 01°17' E 103°59'0 0.0
2018-Jun-09 11:55N 01°17' E 103°59'0 0.1
2018-Jun-09 11:29N 01°17' E 103°59'0 0.0
2018-Jun-09 10:57N 01°17' E 103°59'0 0.1
2018-Jun-09 10:27N 01°17' E 103°59'0 0.0
2018-Jun-09 09:47N 01°17' E 103°59'0 0.0
2018-Jun-09 09:30N 01°17' E 103°59'0 0.0
2018-Jun-09 08:58N 01°17' E 103°59'0 0.0
2018-Jun-09 08:26N 01°17' E 103°59'0 0.0
2018-Jun-09 07:57N 01°17' E 103°59'0 0.0
2018-Jun-09 07:21N 01°17' E 103°59'0 0.2
2018-Jun-09 06:59N 01°17' E 103°59'0 0.0
2018-Jun-09 06:23N 01°17' E 103°59'0 0.0
2018-Jun-09 05:50N 01°17' E 103°59'0 0.1
2018-Jun-09 05:26N 01°17' E 103°59'0 0.0
2018-Jun-09 04:56N 01°17' E 103°59'0 0.0
2018-Jun-09 04:27N 01°17' E 103°59'0 0.0
2018-Jun-09 03:41N 01°17' E 103°59'0 0.0
2018-Jun-09 03:29N 01°17' E 103°59'0 0.0
2018-Jun-09 02:56N 01°17' E 103°59'0 0.0
2018-Jun-09 02:29N 01°17' E 103°59'0 0.6
2018-Jun-09 02:00N 01°17' E 103°59'1 2.7
2018-Jun-09 01:30N 01°16' E 103°59'3 7.0
2018-Jun-09 01:00N 01°16' E 104°02'4 7.6
2018-Jun-09 00:29N 01°17' E 104°06'5 9.2
2018-Jun-08 23:59N 01°17' E 104°11'4 8.5
2018-Jun-08 23:30N 01°18' E 104°15'4 7.8
2018-Jun-08 23:00N 01°19' E 104°19'4 7.8
2018-Jun-08 22:30N 01°21' E 104°22'3 6.4
2018-Jun-08 21:58N 01°23' E 104°24'2 5.3
2018-Jun-08 21:31N 01°25' E 104°26'3 5.0
2018-Jun-08 20:58N 01°27' E 104°28'3 5.8
2018-Jun-08 20:23N 01°29' E 104°31'510.4
2018-Jun-08 19:55N 01°32' E 104°34'510.7
2018-Jun-08 19:28N 01°36' E 104°38'  
Track history (hours):
 
Tides and Currents Weather Stations Pressure Air Temp Water Temp Dewpoint Dewpoint Depression Visibility Wind Speed Wind Dir Waves Ship Positions

Afra Willow

Last reported at 2018-Jun-14 21:47 UTC. Time now 2018-Jul-17 22:47 UTC.
Position N 01°31' E 103°07'.
Warning: this ship's position is 33 days out of date.

Length 241 m; draft 8.3 m.

Type: Ship. MMSI: 636015977.

Date/timePositionNaut miles runAvg speedWind from/ knotsBaromVisibWave heightAir tempDewpointWater temp
2018-Jun-14 21:47N 01°31' E 103°07'712.5
2018-Jun-14 21:12N 01°27' E 103°12'312.7
2018-Jun-14 20:58N 01°25' E 103°14'612.5
2018-Jun-14 20:28N 01°20' E 103°19'511.1
2018-Jun-14 20:00N 01°16' E 103°22'611.4
2018-Jun-14 19:30N 01°14' E 103°27'611.4
2018-Jun-14 19:00N 01°12' E 103°33'511.1
2018-Jun-14 18:30N 01°11' E 103°38'510.7
2018-Jun-14 18:01N 01°09' E 103°43'5 9.2
2018-Jun-14 17:30N 01°10' E 103°47'4 8.6
2018-Jun-14 17:01N 01°12' E 103°51'510.2
2018-Jun-14 16:30N 01°14' E 103°56'611.5
2018-Jun-14 16:00N 01°16' E 104°02'612.0
2018-Jun-14 15:29N 01°17' E 104°08'510.9
2018-Jun-14 15:00N 01°18' E 104°13'611.5
2018-Jun-14 14:29N 01°19' E 104°19'612.2
2018-Jun-14 13:59N 01°22' E 104°24'711.6
2018-Jun-14 13:25N 01°27' E 104°29'8 3.4
2018-Jun-14 11:09N 01°25' E 104°36'0 0.1
2018-Jun-14 08:32N 01°25' E 104°36'0 0.0
2018-Jun-13 21:53N 01°25' E 104°36'0 0.0
2018-Jun-13 15:10N 01°25' E 104°36'0 0.2
2018-Jun-13 14:52N 01°25' E 104°36'0 0.0
2018-Jun-13 14:24N 01°25' E 104°36'0 0.0
2018-Jun-12 05:35N 01°25' E 104°36'0 0.0
2018-Jun-11 19:44N 01°25' E 104°36'0 0.0
2018-Jun-11 14:28N 01°25' E 104°36'0 0.0
2018-Jun-10 18:16N 01°25' E 104°36'0 0.0
2018-Jun-10 04:46N 01°25' E 104°36'2 1.2
2018-Jun-10 02:49N 01°27' E 104°36'9 9.0
2018-Jun-10 01:49N 01°24' E 104°27'410.4
2018-Jun-10 01:25N 01°21' E 104°24'512.2
2018-Jun-10 01:00N 01°17' E 104°20'611.5
2018-Jun-10 00:29N 01°16' E 104°15'611.4
2018-Jun-09 23:59N 01°15' E 104°09'510.2
2018-Jun-09 23:31N 01°16' E 104°04'5 8.8
2018-Jun-09 22:59N 01°17' E 103°60'1 1.1
2018-Jun-09 22:30N 01°17' E 103°59'0 0.1
2018-Jun-09 22:00N 01°17' E 103°59'0 0.1
2018-Jun-09 21:30N 01°17' E 103°59'0 0.0
2018-Jun-09 21:00N 01°17' E 103°59'0 0.0
2018-Jun-09 20:31N 01°17' E 103°59'0 0.0
2018-Jun-09 20:00N 01°17' E 103°59'0 0.1
2018-Jun-09 19:29N 01°17' E 103°59'0 0.0
2018-Jun-09 19:00N 01°17' E 103°59'0 0.0
2018-Jun-09 18:27N 01°17' E 103°59'0 0.0
2018-Jun-09 17:54N 01°17' E 103°59'0 0.1
2018-Jun-09 17:29N 01°17' E 103°59'0 0.0
2018-Jun-09 16:58N 01°17' E 103°59'0 0.0
2018-Jun-09 16:30N 01°17' E 103°59'0 0.0
2018-Jun-09 15:58N 01°17' E 103°59'0 0.0
2018-Jun-09 14:57N 01°17' E 103°59'0 0.0
2018-Jun-09 14:28N 01°17' E 103°59'0 0.1
2018-Jun-09 13:57N 01°17' E 103°59'0 0.0
2018-Jun-09 13:27N 01°17' E 103°59'0 0.0
2018-Jun-09 13:00N 01°17' E 103°59'0 0.0
2018-Jun-09 12:30N 01°17' E 103°59'0 0.0
2018-Jun-09 11:55N 01°17' E 103°59'0 0.1
2018-Jun-09 11:29N 01°17' E 103°59'0 0.0
2018-Jun-09 10:57N 01°17' E 103°59'0 0.1
2018-Jun-09 10:27N 01°17' E 103°59'0 0.0
2018-Jun-09 09:47N 01°17' E 103°59'0 0.0
2018-Jun-09 09:30N 01°17' E 103°59'0 0.0
2018-Jun-09 08:58N 01°17' E 103°59'0 0.0
2018-Jun-09 08:26N 01°17' E 103°59'0 0.0
2018-Jun-09 07:57N 01°17' E 103°59'0 0.0
2018-Jun-09 07:21N 01°17' E 103°59'0 0.2
2018-Jun-09 06:59N 01°17' E 103°59'0 0.0
2018-Jun-09 06:23N 01°17' E 103°59'0 0.0
2018-Jun-09 05:50N 01°17' E 103°59'0 0.1
2018-Jun-09 05:26N 01°17' E 103°59'0 0.0
2018-Jun-09 04:56N 01°17' E 103°59'0 0.0
2018-Jun-09 04:27N 01°17' E 103°59'0 0.0
2018-Jun-09 03:41N 01°17' E 103°59'0 0.0
2018-Jun-09 03:29N 01°17' E 103°59'0 0.0
2018-Jun-09 02:56N 01°17' E 103°59'0 0.0
2018-Jun-09 02:29N 01°17' E 103°59'0 0.6
2018-Jun-09 02:00N 01°17' E 103°59'1 2.7
2018-Jun-09 01:30N 01°16' E 103°59'3 7.0
2018-Jun-09 01:00N 01°16' E 104°02'4 7.6
2018-Jun-09 00:29N 01°17' E 104°06'5 9.2
2018-Jun-08 23:59N 01°17' E 104°11'4 8.5
2018-Jun-08 23:30N 01°18' E 104°15'4 7.8
2018-Jun-08 23:00N 01°19' E 104°19'4 7.8
2018-Jun-08 22:30N 01°21' E 104°22'3 6.4
2018-Jun-08 21:58N 01°23' E 104°24'2 5.3
2018-Jun-08 21:31N 01°25' E 104°26'3 5.0
2018-Jun-08 20:58N 01°27' E 104°28'3 5.8
2018-Jun-08 20:23N 01°29' E 104°31'510.4
2018-Jun-08 19:55N 01°32' E 104°34'510.7
2018-Jun-08 19:28N 01°36' E 104°38'  

Dump ship's entire track history